sensor_id;sensor_type;location;lat;lon;timestamp;P1;durP1;ratioP1;P2;durP2;ratioP2
78987;SDS011;74752;44.786;37.680;2024-02-21T00:00:56;19.73;;;10.23;;
78987;SDS011;74752;44.786;37.680;2024-02-21T00:01:59;19.02;;;10.13;;
78987;SDS011;74752;44.786;37.680;2024-02-21T00:03:06;17.02;;;9.38;;
78987;SDS011;74752;44.786;37.680;2024-02-21T00:04:09;17.67;;;9.30;;
78987;SDS011;74752;44.786;37.680;2024-02-21T00:05:11;22.98;;;10.15;;
78987;SDS011;74752;44.786;37.680;2024-02-21T00:06:15;18.10;;;9.68;;
78987;SDS011;74752;44.786;37.680;2024-02-21T00:07:19;19.13;;;11.00;;
78987;SDS011;74752;44.786;37.680;2024-02-21T00:08:25;17.83;;;10.00;;
78987;SDS011;74752;44.786;37.680;2024-02-21T00:09:27;18.70;;;9.43;;
78987;SDS011;74752;44.786;37.680;2024-02-21T00:10:34;19.10;;;9.30;;
78987;SDS011;74752;44.786;37.680;2024-02-21T00:11:37;18.48;;;10.13;;
78987;SDS011;74752;44.786;37.680;2024-02-21T00:12:39;18.30;;;10.35;;
78987;SDS011;74752;44.786;37.680;2024-02-21T00:15:15;15.77;;;8.57;;
78987;SDS011;74752;44.786;37.680;2024-02-21T00:16:17;18.13;;;9.60;;
78987;SDS011;74752;44.786;37.680;2024-02-21T00:17:19;16.55;;;8.65;;
78987;SDS011;74752;44.786;37.680;2024-02-21T00:18:21;18.83;;;9.68;;
78987;SDS011;74752;44.786;37.680;2024-02-21T00:19:28;17.40;;;9.52;;
78987;SDS011;74752;44.786;37.680;2024-02-21T00:20:30;19.38;;;10.52;;
78987;SDS011;74752;44.786;37.680;2024-02-21T00:21:32;19.88;;;9.90;;
78987;SDS011;74752;44.786;37.680;2024-02-21T00:22:35;18.65;;;10.00;;
78987;SDS011;74752;44.786;37.680;2024-02-21T00:25:10;16.50;;;9.70;;
78987;SDS011;74752;44.786;37.680;2024-02-21T00:26:15;20.95;;;10.50;;
78987;SDS011;74752;44.786;37.680;2024-02-21T00:28:48;21.77;;;10.48;;
78987;SDS011;74752;44.786;37.680;2024-02-21T00:31:19;19.27;;;10.30;;
78987;SDS011;74752;44.786;37.680;2024-02-21T00:32:22;28.42;;;11.20;;
78987;SDS011;74752;44.786;37.680;2024-02-21T00:33:24;21.95;;;10.68;;
78987;SDS011;74752;44.786;37.680;2024-02-21T00:36:23;24.73;;;10.07;;
78987;SDS011;74752;44.786;37.680;2024-02-21T00:37:28;22.83;;;11.40;;
78987;SDS011;74752;44.786;37.680;2024-02-21T00:38:35;22.17;;;11.77;;
78987;SDS011;74752;44.786;37.680;2024-02-21T00:41:06;22.33;;;12.20;;
78987;SDS011;74752;44.786;37.680;2024-02-21T00:42:09;22.55;;;11.93;;
78987;SDS011;74752;44.786;37.680;2024-02-21T00:43:14;22.15;;;10.30;;
78987;SDS011;74752;44.786;37.680;2024-02-21T00:47:10;26.75;;;12.82;;
78987;SDS011;74752;44.786;37.680;2024-02-21T00:48:12;26.63;;;11.77;;
78987;SDS011;74752;44.786;37.680;2024-02-21T00:49:15;27.20;;;11.63;;
78987;SDS011;74752;44.786;37.680;2024-02-21T00:50:17;40.25;;;13.63;;
78987;SDS011;74752;44.786;37.680;2024-02-21T00:52:47;27.35;;;12.48;;
78987;SDS011;74752;44.786;37.680;2024-02-21T00:56:45;27.13;;;11.85;;
78987;SDS011;74752;44.786;37.680;2024-02-21T00:57:48;31.05;;;11.50;;
78987;SDS011;74752;44.786;37.680;2024-02-21T01:00:19;21.20;;;11.77;;
78987;SDS011;74752;44.786;37.680;2024-02-21T01:01:22;27.90;;;13.05;;
78987;SDS011;74752;44.786;37.680;2024-02-21T01:04:16;28.02;;;11.88;;
78987;SDS011;74752;44.786;37.680;2024-02-21T01:05:19;27.25;;;12.40;;
78987;SDS011;74752;44.786;37.680;2024-02-21T01:06:21;25.55;;;12.27;;
78987;SDS011;74752;44.786;37.680;2024-02-21T01:07:25;27.45;;;12.68;;
78987;SDS011;74752;44.786;37.680;2024-02-21T01:10:20;25.10;;;12.32;;
78987;SDS011;74752;44.786;37.680;2024-02-21T01:11:23;34.65;;;14.60;;
78987;SDS011;74752;44.786;37.680;2024-02-21T01:12:26;26.75;;;13.25;;
78987;SDS011;74752;44.786;37.680;2024-02-21T01:13:28;27.65;;;12.40;;
78987;SDS011;74752;44.786;37.680;2024-02-21T01:14:30;33.42;;;12.45;;
78987;SDS011;74752;44.786;37.680;2024-02-21T01:15:36;27.70;;;13.82;;
78987;SDS011;74752;44.786;37.680;2024-02-21T01:18:09;29.38;;;13.15;;
78987;SDS011;74752;44.786;37.680;2024-02-21T01:19:11;29.23;;;12.00;;
78987;SDS011;74752;44.786;37.680;2024-02-21T01:20:14;29.58;;;13.88;;
78987;SDS011;74752;44.786;37.680;2024-02-21T01:23:16;28.90;;;12.60;;
78987;SDS011;74752;44.786;37.680;2024-02-21T01:24:19;25.80;;;13.15;;
78987;SDS011;74752;44.786;37.680;2024-02-21T01:25:31;29.35;;;13.85;;
78987;SDS011;74752;44.786;37.680;2024-02-21T01:26:37;26.38;;;11.88;;
78987;SDS011;74752;44.786;37.680;2024-02-21T01:29:07;27.98;;;11.88;;
78987;SDS011;74752;44.786;37.680;2024-02-21T01:30:09;25.05;;;11.05;;
78987;SDS011;74752;44.786;37.680;2024-02-21T01:31:15;31.10;;;11.45;;
78987;SDS011;74752;44.786;37.680;2024-02-21T01:32:18;24.85;;;13.18;;
78987;SDS011;74752;44.786;37.680;2024-02-21T01:33:23;26.63;;;12.82;;
78987;SDS011;74752;44.786;37.680;2024-02-21T01:34:26;24.05;;;12.45;;
78987;SDS011;74752;44.786;37.680;2024-02-21T01:37:00;25.42;;;11.93;;
78987;SDS011;74752;44.786;37.680;2024-02-21T01:38:06;26.23;;;12.63;;
78987;SDS011;74752;44.786;37.680;2024-02-21T01:42:14;35.70;;;13.40;;
78987;SDS011;74752;44.786;37.680;2024-02-21T01:44:49;36.10;;;13.65;;
78987;SDS011;74752;44.786;37.680;2024-02-21T01:45:54;28.88;;;12.88;;
78987;SDS011;74752;44.786;37.680;2024-02-21T01:46:58;35.90;;;14.82;;
78987;SDS011;74752;44.786;37.680;2024-02-21T01:49:27;30.48;;;14.23;;
78987;SDS011;74752;44.786;37.680;2024-02-21T01:53:36;31.15;;;13.30;;
78987;SDS011;74752;44.786;37.680;2024-02-21T01:54:42;29.60;;;13.05;;
78987;SDS011;74752;44.786;37.680;2024-02-21T01:55:46;30.50;;;13.88;;
78987;SDS011;74752;44.786;37.680;2024-02-21T01:56:50;31.35;;;13.55;;
78987;SDS011;74752;44.786;37.680;2024-02-21T01:57:54;31.27;;;14.60;;
78987;SDS011;74752;44.786;37.680;2024-02-21T01:58:57;33.13;;;14.02;;
78987;SDS011;74752;44.786;37.680;2024-02-21T02:01:29;34.38;;;14.43;;
78987;SDS011;74752;44.786;37.680;2024-02-21T02:02:35;30.70;;;14.65;;
78987;SDS011;74752;44.786;37.680;2024-02-21T02:03:39;30.15;;;12.77;;
78987;SDS011;74752;44.786;37.680;2024-02-21T02:04:42;29.60;;;14.15;;
78987;SDS011;74752;44.786;37.680;2024-02-21T02:05:47;34.53;;;14.80;;
78987;SDS011;74752;44.786;37.680;2024-02-21T02:06:55;29.95;;;13.95;;
78987;SDS011;74752;44.786;37.680;2024-02-21T02:07:59;35.20;;;13.85;;
78987;SDS011;74752;44.786;37.680;2024-02-21T02:09:05;37.35;;;15.70;;
78987;SDS011;74752;44.786;37.680;2024-02-21T02:10:08;35.42;;;15.25;;
78987;SDS011;74752;44.786;37.680;2024-02-21T02:11:15;33.30;;;15.13;;
78987;SDS011;74752;44.786;37.680;2024-02-21T02:12:18;31.00;;;14.27;;
78987;SDS011;74752;44.786;37.680;2024-02-21T02:13:20;30.38;;;14.20;;
78987;SDS011;74752;44.786;37.680;2024-02-21T02:14:22;30.58;;;14.57;;
78987;SDS011;74752;44.786;37.680;2024-02-21T02:15:24;34.75;;;13.65;;
78987;SDS011;74752;44.786;37.680;2024-02-21T02:16:27;30.23;;;13.75;;
78987;SDS011;74752;44.786;37.680;2024-02-21T02:17:30;35.15;;;14.30;;
78987;SDS011;74752;44.786;37.680;2024-02-21T02:18:32;30.45;;;13.90;;
78987;SDS011;74752;44.786;37.680;2024-02-21T02:19:34;34.88;;;15.32;;
78987;SDS011;74752;44.786;37.680;2024-02-21T02:20:37;30.65;;;13.98;;
78987;SDS011;74752;44.786;37.680;2024-02-21T02:21:40;28.00;;;13.02;;
78987;SDS011;74752;44.786;37.680;2024-02-21T02:22:58;32.05;;;13.15;;
78987;SDS011;74752;44.786;37.680;2024-02-21T02:24:01;37.15;;;14.30;;
78987;SDS011;74752;44.786;37.680;2024-02-21T02:25:04;33.28;;;15.68;;
78987;SDS011;74752;44.786;37.680;2024-02-21T02:26:06;32.30;;;14.95;;
78987;SDS011;74752;44.786;37.680;2024-02-21T02:27:15;32.42;;;13.63;;
78987;SDS011;74752;44.786;37.680;2024-02-21T02:29:46;28.90;;;13.43;;
78987;SDS011;74752;44.786;37.680;2024-02-21T02:33:46;37.88;;;15.77;;
78987;SDS011;74752;44.786;37.680;2024-02-21T02:36:19;36.63;;;14.75;;
78987;SDS011;74752;44.786;37.680;2024-02-21T02:37:25;31.38;;;12.77;;
78987;SDS011;74752;44.786;37.680;2024-02-21T02:38:27;36.47;;;15.18;;
78987;SDS011;74752;44.786;37.680;2024-02-21T02:39:30;30.05;;;13.88;;
78987;SDS011;74752;44.786;37.680;2024-02-21T02:40:38;32.08;;;14.00;;
78987;SDS011;74752;44.786;37.680;2024-02-21T02:41:41;32.25;;;13.65;;
78987;SDS011;74752;44.786;37.680;2024-02-21T02:42:44;29.52;;;13.25;;
78987;SDS011;74752;44.786;37.680;2024-02-21T02:43:46;31.55;;;13.55;;
78987;SDS011;74752;44.786;37.680;2024-02-21T02:44:54;32.10;;;14.10;;
78987;SDS011;74752;44.786;37.680;2024-02-21T02:45:56;31.40;;;14.77;;
78987;SDS011;74752;44.786;37.680;2024-02-21T02:46:59;33.42;;;13.52;;
78987;SDS011;74752;44.786;37.680;2024-02-21T02:48:01;32.30;;;15.18;;
78987;SDS011;74752;44.786;37.680;2024-02-21T02:49:03;38.38;;;15.27;;
78987;SDS011;74752;44.786;37.680;2024-02-21T02:50:06;38.00;;;15.48;;
78987;SDS011;74752;44.786;37.680;2024-02-21T02:52:38;29.25;;;13.77;;
78987;SDS011;74752;44.786;37.680;2024-02-21T02:53:45;39.42;;;15.07;;
78987;SDS011;74752;44.786;37.680;2024-02-21T02:54:47;35.20;;;15.15;;
78987;SDS011;74752;44.786;37.680;2024-02-21T02:55:56;38.53;;;15.00;;
78987;SDS011;74752;44.786;37.680;2024-02-21T02:58:26;33.20;;;14.27;;
78987;SDS011;74752;44.786;37.680;2024-02-21T02:59:28;35.40;;;15.95;;
78987;SDS011;74752;44.786;37.680;2024-02-21T03:00:30;33.80;;;14.30;;
78987;SDS011;74752;44.786;37.680;2024-02-21T03:03:09;31.13;;;14.00;;
78987;SDS011;74752;44.786;37.680;2024-02-21T03:04:12;32.78;;;13.63;;
78987;SDS011;74752;44.786;37.680;2024-02-21T03:05:27;38.13;;;15.02;;
78987;SDS011;74752;44.786;37.680;2024-02-21T03:07:59;35.15;;;14.60;;
78987;SDS011;74752;44.786;37.680;2024-02-21T03:09:01;36.45;;;15.48;;
78987;SDS011;74752;44.786;37.680;2024-02-21T03:11:38;45.20;;;14.52;;
78987;SDS011;74752;44.786;37.680;2024-02-21T03:12:44;33.30;;;15.00;;
78987;SDS011;74752;44.786;37.680;2024-02-21T03:13:46;33.38;;;15.25;;
78987;SDS011;74752;44.786;37.680;2024-02-21T03:14:48;46.30;;;13.52;;
78987;SDS011;74752;44.786;37.680;2024-02-21T03:15:51;36.13;;;14.05;;
78987;SDS011;74752;44.786;37.680;2024-02-21T03:16:53;29.83;;;14.27;;
78987;SDS011;74752;44.786;37.680;2024-02-21T03:17:55;36.90;;;13.80;;
78987;SDS011;74752;44.786;37.680;2024-02-21T03:18:58;36.67;;;15.30;;
78987;SDS011;74752;44.786;37.680;2024-02-21T03:21:28;35.25;;;14.20;;
78987;SDS011;74752;44.786;37.680;2024-02-21T03:24:02;35.55;;;14.02;;
78987;SDS011;74752;44.786;37.680;2024-02-21T03:25:05;29.27;;;13.95;;
78987;SDS011;74752;44.786;37.680;2024-02-21T03:27:36;34.83;;;16.00;;
78987;SDS011;74752;44.786;37.680;2024-02-21T03:28:49;33.08;;;15.77;;
78987;SDS011;74752;44.786;37.680;2024-02-21T03:30:54;28.98;;;14.63;;
78987;SDS011;74752;44.786;37.680;2024-02-21T03:31:56;34.30;;;15.52;;
78987;SDS011;74752;44.786;37.680;2024-02-21T03:33:02;36.47;;;15.80;;
78987;SDS011;74752;44.786;37.680;2024-02-21T03:34:04;36.38;;;15.23;;
78987;SDS011;74752;44.786;37.680;2024-02-21T03:35:06;36.92;;;16.20;;
78987;SDS011;74752;44.786;37.680;2024-02-21T03:36:15;36.40;;;16.05;;
78987;SDS011;74752;44.786;37.680;2024-02-21T03:37:18;32.60;;;15.02;;
78987;SDS011;74752;44.786;37.680;2024-02-21T03:38:21;40.28;;;16.85;;
78987;SDS011;74752;44.786;37.680;2024-02-21T03:44:16;32.35;;;14.68;;
78987;SDS011;74752;44.786;37.680;2024-02-21T03:45:18;36.47;;;13.80;;
78987;SDS011;74752;44.786;37.680;2024-02-21T03:46:23;33.17;;;15.07;;
78987;SDS011;74752;44.786;37.680;2024-02-21T03:47:31;34.88;;;15.20;;
78987;SDS011;74752;44.786;37.680;2024-02-21T03:48:34;35.85;;;13.85;;
78987;SDS011;74752;44.786;37.680;2024-02-21T03:49:38;34.13;;;15.18;;
78987;SDS011;74752;44.786;37.680;2024-02-21T03:50:40;31.42;;;13.93;;
78987;SDS011;74752;44.786;37.680;2024-02-21T03:54:41;31.30;;;14.45;;
78987;SDS011;74752;44.786;37.680;2024-02-21T03:55:48;34.88;;;14.95;;
78987;SDS011;74752;44.786;37.680;2024-02-21T03:56:50;39.83;;;16.27;;
78987;SDS011;74752;44.786;37.680;2024-02-21T03:59:45;34.53;;;15.07;;
78987;SDS011;74752;44.786;37.680;2024-02-21T04:00:48;40.72;;;14.90;;
78987;SDS011;74752;44.786;37.680;2024-02-21T04:03:19;46.60;;;17.95;;
78987;SDS011;74752;44.786;37.680;2024-02-21T04:04:22;41.80;;;16.67;;
78987;SDS011;74752;44.786;37.680;2024-02-21T04:05:24;41.40;;;16.25;;
78987;SDS011;74752;44.786;37.680;2024-02-21T04:06:28;49.67;;;18.52;;
78987;SDS011;74752;44.786;37.680;2024-02-21T04:07:33;44.97;;;17.48;;
78987;SDS011;74752;44.786;37.680;2024-02-21T04:08:38;45.35;;;17.75;;
78987;SDS011;74752;44.786;37.680;2024-02-21T04:09:43;34.88;;;15.73;;
78987;SDS011;74752;44.786;37.680;2024-02-21T04:10:45;39.00;;;16.98;;
78987;SDS011;74752;44.786;37.680;2024-02-21T04:11:48;42.20;;;16.38;;
78987;SDS011;74752;44.786;37.680;2024-02-21T04:12:50;38.05;;;16.63;;
78987;SDS011;74752;44.786;37.680;2024-02-21T04:13:53;52.25;;;16.45;;
78987;SDS011;74752;44.786;37.680;2024-02-21T04:14:58;39.50;;;17.83;;
78987;SDS011;74752;44.786;37.680;2024-02-21T04:17:33;34.67;;;15.98;;
78987;SDS011;74752;44.786;37.680;2024-02-21T04:18:36;46.95;;;17.55;;
78987;SDS011;74752;44.786;37.680;2024-02-21T04:19:39;75.03;;;19.30;;
78987;SDS011;74752;44.786;37.680;2024-02-21T04:22:38;37.35;;;15.52;;
78987;SDS011;74752;44.786;37.680;2024-02-21T04:23:41;43.88;;;17.73;;
78987;SDS011;74752;44.786;37.680;2024-02-21T04:24:44;48.92;;;15.88;;
78987;SDS011;74752;44.786;37.680;2024-02-21T04:25:46;47.53;;;18.33;;
78987;SDS011;74752;44.786;37.680;2024-02-21T04:26:49;42.08;;;19.38;;
78987;SDS011;74752;44.786;37.680;2024-02-21T04:30:50;63.20;;;16.70;;
78987;SDS011;74752;44.786;37.680;2024-02-21T04:31:52;60.30;;;16.27;;
78987;SDS011;74752;44.786;37.680;2024-02-21T04:32:56;54.05;;;16.30;;
78987;SDS011;74752;44.786;37.680;2024-02-21T04:34:02;50.92;;;15.15;;
78987;SDS011;74752;44.786;37.680;2024-02-21T04:37:03;31.70;;;12.98;;
78987;SDS011;74752;44.786;37.680;2024-02-21T04:38:05;34.22;;;14.07;;
78987;SDS011;74752;44.786;37.680;2024-02-21T04:39:08;43.15;;;15.55;;
78987;SDS011;74752;44.786;37.680;2024-02-21T04:40:11;43.70;;;14.77;;
78987;SDS011;74752;44.786;37.680;2024-02-21T04:43:09;30.75;;;13.32;;
78987;SDS011;74752;44.786;37.680;2024-02-21T04:44:12;35.50;;;14.68;;
78987;SDS011;74752;44.786;37.680;2024-02-21T04:48:35;30.10;;;14.23;;
78987;SDS011;74752;44.786;37.680;2024-02-21T04:49:38;31.42;;;14.85;;
78987;SDS011;74752;44.786;37.680;2024-02-21T04:50:42;35.08;;;15.13;;
78987;SDS011;74752;44.786;37.680;2024-02-21T04:51:45;37.35;;;14.32;;
78987;SDS011;74752;44.786;37.680;2024-02-21T04:52:47;31.08;;;13.60;;
78987;SDS011;74752;44.786;37.680;2024-02-21T04:53:50;33.95;;;14.20;;
78987;SDS011;74752;44.786;37.680;2024-02-21T04:54:53;33.53;;;14.93;;
78987;SDS011;74752;44.786;37.680;2024-02-21T04:55:55;35.13;;;14.88;;
78987;SDS011;74752;44.786;37.680;2024-02-21T04:56:57;56.53;;;15.65;;
78987;SDS011;74752;44.786;37.680;2024-02-21T04:58:03;31.05;;;14.50;;
78987;SDS011;74752;44.786;37.680;2024-02-21T05:02:32;30.27;;;14.57;;
78987;SDS011;74752;44.786;37.680;2024-02-21T05:05:27;34.45;;;12.85;;
78987;SDS011;74752;44.786;37.680;2024-02-21T05:06:29;26.80;;;12.50;;
78987;SDS011;74752;44.786;37.680;2024-02-21T05:07:34;27.42;;;11.90;;
78987;SDS011;74752;44.786;37.680;2024-02-21T05:11:36;24.73;;;13.35;;
78987;SDS011;74752;44.786;37.680;2024-02-21T05:15:39;24.55;;;12.07;;
78987;SDS011;74752;44.786;37.680;2024-02-21T05:16:42;24.65;;;12.30;;
78987;SDS011;74752;44.786;37.680;2024-02-21T05:17:45;28.08;;;12.85;;
78987;SDS011;74752;44.786;37.680;2024-02-21T05:20:17;23.13;;;11.73;;
78987;SDS011;74752;44.786;37.680;2024-02-21T05:21:19;24.83;;;12.38;;
78987;SDS011;74752;44.786;37.680;2024-02-21T05:22:23;21.15;;;11.98;;
78987;SDS011;74752;44.786;37.680;2024-02-21T05:25:01;22.58;;;12.60;;
78987;SDS011;74752;44.786;37.680;2024-02-21T05:26:11;24.33;;;12.13;;
78987;SDS011;74752;44.786;37.680;2024-02-21T05:30:47;22.63;;;11.98;;
78987;SDS011;74752;44.786;37.680;2024-02-21T05:32:56;20.88;;;11.10;;
78987;SDS011;74752;44.786;37.680;2024-02-21T05:33:58;27.42;;;12.35;;
78987;SDS011;74752;44.786;37.680;2024-02-21T05:35:09;27.58;;;14.13;;
78987;SDS011;74752;44.786;37.680;2024-02-21T05:36:12;24.88;;;12.70;;
78987;SDS011;74752;44.786;37.680;2024-02-21T05:37:16;25.85;;;12.02;;
78987;SDS011;74752;44.786;37.680;2024-02-21T05:41:18;32.45;;;13.07;;
78987;SDS011;74752;44.786;37.680;2024-02-21T05:42:27;22.85;;;12.77;;
78987;SDS011;74752;44.786;37.680;2024-02-21T05:43:29;23.98;;;14.15;;
78987;SDS011;74752;44.786;37.680;2024-02-21T05:44:33;33.42;;;14.10;;
78987;SDS011;74752;44.786;37.680;2024-02-21T05:47:05;22.00;;;14.07;;
78987;SDS011;74752;44.786;37.680;2024-02-21T05:48:15;34.17;;;14.10;;
78987;SDS011;74752;44.786;37.680;2024-02-21T05:49:17;116.38;;;18.27;;
78987;SDS011;74752;44.786;37.680;2024-02-21T05:50:20;71.93;;;13.82;;
78987;SDS011;74752;44.786;37.680;2024-02-21T05:51:24;35.47;;;11.75;;
78987;SDS011;74752;44.786;37.680;2024-02-21T05:52:31;29.77;;;11.40;;
78987;SDS011;74752;44.786;37.680;2024-02-21T05:53:37;18.70;;;10.15;;
78987;SDS011;74752;44.786;37.680;2024-02-21T05:54:41;22.60;;;10.48;;
78987;SDS011;74752;44.786;37.680;2024-02-21T05:55:52;20.08;;;11.07;;
78987;SDS011;74752;44.786;37.680;2024-02-21T05:56:55;19.52;;;11.00;;
78987;SDS011;74752;44.786;37.680;2024-02-21T05:58:03;20.00;;;11.32;;
78987;SDS011;74752;44.786;37.680;2024-02-21T05:59:05;17.98;;;9.82;;
78987;SDS011;74752;44.786;37.680;2024-02-21T06:01:38;21.08;;;10.50;;
78987;SDS011;74752;44.786;37.680;2024-02-21T06:02:42;22.02;;;11.10;;
78987;SDS011;74752;44.786;37.680;2024-02-21T06:06:42;18.98;;;10.13;;
78987;SDS011;74752;44.786;37.680;2024-02-21T06:09:12;16.95;;;9.32;;
78987;SDS011;74752;44.786;37.680;2024-02-21T06:10:14;20.05;;;10.68;;
78987;SDS011;74752;44.786;37.680;2024-02-21T06:11:16;26.58;;;12.60;;
78987;SDS011;74752;44.786;37.680;2024-02-21T06:12:20;23.95;;;12.30;;
78987;SDS011;74752;44.786;37.680;2024-02-21T06:14:53;21.08;;;9.98;;
78987;SDS011;74752;44.786;37.680;2024-02-21T06:17:27;17.73;;;10.38;;
78987;SDS011;74752;44.786;37.680;2024-02-21T06:18:29;16.45;;;9.15;;
78987;SDS011;74752;44.786;37.680;2024-02-21T06:19:31;19.80;;;10.43;;
78987;SDS011;74752;44.786;37.680;2024-02-21T06:20:36;18.75;;;9.95;;
78987;SDS011;74752;44.786;37.680;2024-02-21T06:21:44;19.80;;;11.23;;
78987;SDS011;74752;44.786;37.680;2024-02-21T06:22:46;21.67;;;10.73;;
78987;SDS011;74752;44.786;37.680;2024-02-21T06:23:48;22.20;;;11.55;;
78987;SDS011;74752;44.786;37.680;2024-02-21T06:24:50;21.30;;;11.02;;
78987;SDS011;74752;44.786;37.680;2024-02-21T06:25:53;24.73;;;10.38;;
78987;SDS011;74752;44.786;37.680;2024-02-21T06:28:28;21.73;;;11.35;;
78987;SDS011;74752;44.786;37.680;2024-02-21T06:29:30;18.92;;;9.30;;
78987;SDS011;74752;44.786;37.680;2024-02-21T06:30:33;21.95;;;11.65;;
78987;SDS011;74752;44.786;37.680;2024-02-21T06:31:37;20.25;;;10.63;;
78987;SDS011;74752;44.786;37.680;2024-02-21T06:32:39;18.10;;;9.38;;
78987;SDS011;74752;44.786;37.680;2024-02-21T06:33:42;19.42;;;10.30;;
78987;SDS011;74752;44.786;37.680;2024-02-21T06:34:45;18.85;;;10.18;;
78987;SDS011;74752;44.786;37.680;2024-02-21T06:35:47;16.13;;;8.90;;
78987;SDS011;74752;44.786;37.680;2024-02-21T06:36:53;25.95;;;11.30;;
78987;SDS011;74752;44.786;37.680;2024-02-21T06:37:55;17.17;;;9.30;;
78987;SDS011;74752;44.786;37.680;2024-02-21T06:38:58;17.38;;;9.27;;
78987;SDS011;74752;44.786;37.680;2024-02-21T06:40:02;20.08;;;10.23;;
78987;SDS011;74752;44.786;37.680;2024-02-21T06:41:05;20.67;;;10.25;;
78987;SDS011;74752;44.786;37.680;2024-02-21T06:42:09;21.02;;;11.35;;
78987;SDS011;74752;44.786;37.680;2024-02-21T06:43:12;19.95;;;11.05;;
78987;SDS011;74752;44.786;37.680;2024-02-21T06:44:15;23.38;;;10.10;;
78987;SDS011;74752;44.786;37.680;2024-02-21T06:45:20;19.92;;;9.63;;
78987;SDS011;74752;44.786;37.680;2024-02-21T06:46:26;17.20;;;9.25;;
78987;SDS011;74752;44.786;37.680;2024-02-21T06:47:35;18.98;;;9.00;;
78987;SDS011;74752;44.786;37.680;2024-02-21T06:48:38;29.42;;;9.23;;
78987;SDS011;74752;44.786;37.680;2024-02-21T06:49:40;18.58;;;9.18;;
78987;SDS011;74752;44.786;37.680;2024-02-21T06:50:44;34.15;;;9.35;;
78987;SDS011;74752;44.786;37.680;2024-02-21T06:51:46;24.08;;;9.25;;
78987;SDS011;74752;44.786;37.680;2024-02-21T06:52:48;19.42;;;8.02;;
78987;SDS011;74752;44.786;37.680;2024-02-21T06:53:52;14.18;;;8.18;;
78987;SDS011;74752;44.786;37.680;2024-02-21T06:54:56;11.90;;;6.32;;
78987;SDS011;74752;44.786;37.680;2024-02-21T06:55:58;10.60;;;6.53;;
78987;SDS011;74752;44.786;37.680;2024-02-21T06:57:02;13.95;;;8.05;;
78987;SDS011;74752;44.786;37.680;2024-02-21T06:58:05;13.63;;;7.80;;
78987;SDS011;74752;44.786;37.680;2024-02-21T06:59:14;12.48;;;7.78;;
78987;SDS011;74752;44.786;37.680;2024-02-21T07:00:17;15.20;;;8.40;;
78987;SDS011;74752;44.786;37.680;2024-02-21T07:01:20;19.70;;;9.25;;
78987;SDS011;74752;44.786;37.680;2024-02-21T07:02:23;17.50;;;9.60;;
78987;SDS011;74752;44.786;37.680;2024-02-21T07:03:25;15.48;;;8.50;;
78987;SDS011;74752;44.786;37.680;2024-02-21T07:04:28;15.18;;;8.52;;
78987;SDS011;74752;44.786;37.680;2024-02-21T07:05:30;15.57;;;9.30;;
78987;SDS011;74752;44.786;37.680;2024-02-21T07:06:33;20.33;;;8.52;;
78987;SDS011;74752;44.786;37.680;2024-02-21T07:07:36;13.90;;;8.23;;
78987;SDS011;74752;44.786;37.680;2024-02-21T07:08:38;14.63;;;7.40;;
78987;SDS011;74752;44.786;37.680;2024-02-21T07:09:40;26.17;;;8.02;;
78987;SDS011;74752;44.786;37.680;2024-02-21T07:10:43;17.75;;;7.53;;
78987;SDS011;74752;44.786;37.680;2024-02-21T07:11:48;21.30;;;8.93;;
78987;SDS011;74752;44.786;37.680;2024-02-21T07:12:50;14.68;;;8.90;;
78987;SDS011;74752;44.786;37.680;2024-02-21T07:13:54;10.88;;;5.78;;
78987;SDS011;74752;44.786;37.680;2024-02-21T07:14:57;12.70;;;7.00;;
78987;SDS011;74752;44.786;37.680;2024-02-21T07:15:59;11.85;;;6.43;;
78987;SDS011;74752;44.786;37.680;2024-02-21T07:17:02;14.50;;;6.88;;
78987;SDS011;74752;44.786;37.680;2024-02-21T07:18:07;15.02;;;7.70;;
78987;SDS011;74752;44.786;37.680;2024-02-21T07:19:09;16.55;;;7.57;;
78987;SDS011;74752;44.786;37.680;2024-02-21T07:20:12;19.80;;;7.57;;
78987;SDS011;74752;44.786;37.680;2024-02-21T07:21:16;12.75;;;7.28;;
78987;SDS011;74752;44.786;37.680;2024-02-21T07:22:18;15.50;;;7.72;;
78987;SDS011;74752;44.786;37.680;2024-02-21T07:23:20;14.32;;;6.55;;
78987;SDS011;74752;44.786;37.680;2024-02-21T07:24:23;13.85;;;7.15;;
78987;SDS011;74752;44.786;37.680;2024-02-21T07:25:26;13.93;;;6.28;;
78987;SDS011;74752;44.786;37.680;2024-02-21T07:26:28;11.43;;;6.32;;
78987;SDS011;74752;44.786;37.680;2024-02-21T07:27:30;14.63;;;6.75;;
78987;SDS011;74752;44.786;37.680;2024-02-21T07:28:35;12.05;;;6.45;;
78987;SDS011;74752;44.786;37.680;2024-02-21T07:29:37;17.27;;;7.20;;
78987;SDS011;74752;44.786;37.680;2024-02-21T07:30:40;18.20;;;7.85;;
78987;SDS011;74752;44.786;37.680;2024-02-21T07:31:43;23.10;;;7.13;;
78987;SDS011;74752;44.786;37.680;2024-02-21T07:32:48;20.23;;;7.20;;
78987;SDS011;74752;44.786;37.680;2024-02-21T07:33:55;28.63;;;7.82;;
78987;SDS011;74752;44.786;37.680;2024-02-21T07:35:59;11.30;;;6.03;;
78987;SDS011;74752;44.786;37.680;2024-02-21T07:37:02;13.50;;;6.22;;
78987;SDS011;74752;44.786;37.680;2024-02-21T07:38:05;11.75;;;5.97;;
78987;SDS011;74752;44.786;37.680;2024-02-21T07:39:09;14.05;;;5.43;;
78987;SDS011;74752;44.786;37.680;2024-02-21T07:40:14;21.58;;;5.63;;
78987;SDS011;74752;44.786;37.680;2024-02-21T07:41:17;13.07;;;5.95;;
78987;SDS011;74752;44.786;37.680;2024-02-21T07:42:23;49.22;;;9.75;;
78987;SDS011;74752;44.786;37.680;2024-02-21T07:43:27;11.32;;;5.78;;
78987;SDS011;74752;44.786;37.680;2024-02-21T07:44:30;11.73;;;5.35;;
78987;SDS011;74752;44.786;37.680;2024-02-21T07:45:36;11.23;;;5.72;;
78987;SDS011;74752;44.786;37.680;2024-02-21T07:47:42;11.55;;;6.00;;
78987;SDS011;74752;44.786;37.680;2024-02-21T07:48:45;29.73;;;7.03;;
78987;SDS011;74752;44.786;37.680;2024-02-21T07:49:50;12.32;;;6.40;;
78987;SDS011;74752;44.786;37.680;2024-02-21T07:50:53;13.35;;;6.40;;
78987;SDS011;74752;44.786;37.680;2024-02-21T07:51:56;14.07;;;6.38;;
78987;SDS011;74752;44.786;37.680;2024-02-21T07:52:58;11.63;;;6.00;;
78987;SDS011;74752;44.786;37.680;2024-02-21T07:54:03;11.10;;;6.35;;
78987;SDS011;74752;44.786;37.680;2024-02-21T07:55:06;10.73;;;5.53;;
78987;SDS011;74752;44.786;37.680;2024-02-21T07:56:09;13.95;;;6.47;;
78987;SDS011;74752;44.786;37.680;2024-02-21T07:57:12;10.20;;;6.00;;
78987;SDS011;74752;44.786;37.680;2024-02-21T07:58:17;17.10;;;5.72;;
78987;SDS011;74752;44.786;37.680;2024-02-21T07:59:19;59.15;;;11.43;;
78987;SDS011;74752;44.786;37.680;2024-02-21T08:00:22;29.48;;;7.35;;
78987;SDS011;74752;44.786;37.680;2024-02-21T08:01:25;10.65;;;6.22;;
78987;SDS011;74752;44.786;37.680;2024-02-21T08:02:28;17.95;;;7.35;;
78987;SDS011;74752;44.786;37.680;2024-02-21T08:03:30;19.65;;;8.30;;
78987;SDS011;74752;44.786;37.680;2024-02-21T08:04:33;15.90;;;7.95;;
78987;SDS011;74752;44.786;37.680;2024-02-21T08:05:36;12.63;;;7.20;;
78987;SDS011;74752;44.786;37.680;2024-02-21T08:06:38;14.32;;;6.72;;
78987;SDS011;74752;44.786;37.680;2024-02-21T08:07:40;26.35;;;8.65;;